Time;durP1;ratioP1;P1;durP2;ratioP2;P2;SDS_P1;SDS_P2;PMS_P1;PMS_P2;Temp;Humidity;BMP_temperature;BMP_pressure;BME280_temperature;BME280_humidity;BME280_pressure;Samples;Min_cycle;Max_cycle;Signal;HPM_P1;HPM_P2
2022/10/26 00:00:44;;;;;;;7.35;4.90;;;13.40;82.10;;;;;;5073108;28;20024;-19
2022/10/26 00:03:10;;;;;;;9.90;6.10;;;13.40;82.00;;;;;;5073508;28;20107;-17
2022/10/26 00:05:36;;;;;;;11.48;6.38;;;13.40;82.00;;;;;;5073120;28;20047;-18
2022/10/26 00:08:02;;;;;;;9.93;5.90;;;13.40;82.10;;;;;;5073367;28;20247;-17
2022/10/26 00:10:28;;;;;;;8.85;5.43;;;13.40;82.20;;;;;;5071868;28;20028;-19
2022/10/26 00:12:54;;;;;;;8.68;5.85;;;13.40;82.20;;;;;;5072746;28;20073;-17
2022/10/26 00:15:20;;;;;;;9.38;5.55;;;13.40;82.10;;;;;;5073246;28;20033;-17
2022/10/26 00:17:47;;;;;;;11.27;6.00;;;13.40;82.10;;;;;;5073324;28;20494;-18
2022/10/26 00:20:14;;;;;;;15.05;6.60;;;13.40;82.10;;;;;;5072835;28;20548;-18
2022/10/26 00:22:40;;;;;;;14.57;7.93;;;13.30;82.10;;;;;;5071616;28;20082;-18
2022/10/26 00:25:07;;;;;;;10.00;7.03;;;13.40;82.10;;;;;;5073267;28;20368;-17
2022/10/26 00:27:33;;;;;;;10.88;5.95;;;13.30;82.10;;;;;;5072848;28;20029;-18
2022/10/26 00:30:00;;;;;;;10.88;6.90;;;13.30;82.30;;;;;;5073190;28;20109;-18
2022/10/26 00:32:27;;;;;;;10.70;6.78;;;13.30;82.20;;;;;;5071573;28;20032;-17
2022/10/26 00:34:53;;;;;;;9.88;6.78;;;13.30;82.20;;;;;;5072600;28;20024;-17
2022/10/26 00:37:18;;;;;;;11.65;6.90;;;13.20;82.30;;;;;;5076636;28;20111;-18
2022/10/26 00:39:44;;;;;;;10.05;6.00;;;13.20;82.20;;;;;;5077093;28;20112;-18
2022/10/26 00:42:18;;;;;;;11.88;6.38;;;13.10;82.40;;;;;;5075402;28;20127;-17
2022/10/26 00:44:46;;;;;;;15.45;7.95;;;13.10;82.40;;;;;;5076646;28;20127;-16
2022/10/26 00:47:43;;;;;;;9.43;6.15;;;13.10;82.50;;;;;;5076893;28;20034;-16
2022/10/26 00:50:23;;;;;;;11.38;6.30;;;13.10;82.50;;;;;;5076762;28;20100;-17
2022/10/26 00:52:51;;;;;;;11.55;6.68;;;13.10;82.70;;;;;;5076444;28;20020;-17
2022/10/26 00:55:20;;;;;;;9.27;5.40;;;13.00;82.60;;;;;;5076968;28;20021;-17
2022/10/26 00:57:48;;;;;;;8.98;5.47;;;12.90;82.50;;;;;;5076352;28;20115;-17
2022/10/26 01:00:14;;;;;;;8.52;5.25;;;12.90;82.40;;;;;;5076464;28;20019;-19
2022/10/26 01:02:43;;;;;;;9.77;6.10;;;12.90;82.40;;;;;;5076252;28;20361;-17
2022/10/26 01:05:11;;;;;;;11.18;5.68;;;12.90;82.40;;;;;;5076078;28;20112;-18
2022/10/26 01:07:38;;;;;;;8.18;5.28;;;12.90;82.50;;;;;;5076840;28;20077;-17
2022/10/26 01:10:05;;;;;;;9.55;5.45;;;12.80;82.50;;;;;;5076139;28;20064;-18
2022/10/26 01:12:31;;;;;;;9.57;6.03;;;12.80;82.40;;;;;;5076378;28;20013;-18
2022/10/26 01:14:57;;;;;;;8.98;5.38;;;12.80;82.50;;;;;;5075838;28;20078;-17
2022/10/26 01:17:37;;;;;;;12.50;6.40;;;12.80;82.50;;;;;;5076352;28;20024;-18
2022/10/26 01:20:21;;;;;;;10.80;6.03;;;12.90;82.60;;;;;;5076311;28;20021;-17
2022/10/26 01:23:13;;;;;;;10.93;6.32;;;12.90;82.60;;;;;;5076308;28;20033;-18
2022/10/26 01:26:03;;;;;;;11.90;7.75;;;12.90;82.60;;;;;;5076556;28;20024;-16
2022/10/26 01:28:44;;;;;;;10.18;6.63;;;13.00;82.70;;;;;;5076214;28;20104;-18
2022/10/26 01:31:14;;;;;;;8.10;5.40;;;13.10;82.70;;;;;;5076303;28;20020;-18
2022/10/26 01:33:48;;;;;;;14.30;6.85;;;13.10;82.70;;;;;;5076150;28;20358;-16
2022/10/26 01:36:42;;;;;;;11.88;6.38;;;13.10;83.30;;;;;;5076218;28;20039;-17
2022/10/26 01:39:20;;;;;;;9.13;5.50;;;13.20;83.40;;;;;;5069795;28;20047;-17
2022/10/26 01:41:52;;;;;;;9.07;5.32;;;13.20;82.80;;;;;;5075573;28;20516;-16
2022/10/26 01:44:29;;;;;;;9.95;5.90;;;13.20;82.70;;;;;;5075638;28;20059;-16
2022/10/26 01:46:58;;;;;;;9.10;5.95;;;13.20;82.70;;;;;;5074848;28;20029;-16
2022/10/26 01:49:31;;;;;;;9.38;5.82;;;13.30;82.80;;;;;;5075709;28;20020;-18
2022/10/26 01:51:57;;;;;;;11.98;6.03;;;13.30;82.70;;;;;;5075424;28;20021;-18
2022/10/26 01:54:23;;;;;;;11.88;5.55;;;13.30;83.00;;;;;;5075710;28;20081;-16
2022/10/26 01:57:00;;;;;;;10.30;5.28;;;13.30;82.80;;;;;;5075315;28;20503;-16
2022/10/26 01:59:35;;;;;;;7.55;4.65;;;13.30;82.70;;;;;;5075313;28;20016;-17
2022/10/26 02:02:30;;;;;;;9.35;5.70;;;13.30;82.70;;;;;;5075547;28;20392;-16
2022/10/26 02:05:04;;;;;;;6.63;4.50;;;13.40;82.80;;;;;;5065747;28;20024;-17
2022/10/26 02:07:45;;;;;;;7.78;5.13;;;13.30;82.80;;;;;;5075462;28;20113;-17
2022/10/26 02:10:58;;;;;;;10.25;5.88;;;13.30;82.60;;;;;;5075469;28;20507;-16
2022/10/26 02:13:33;;;;;;;9.52;5.85;;;13.30;82.60;;;;;;5033306;28;20030;-17
2022/10/26 02:16:26;;;;;;;8.18;5.47;;;13.30;82.90;;;;;;5033101;28;20070;-17
2022/10/26 02:19:04;;;;;;;8.13;4.97;;;13.20;82.70;;;;;;5032816;28;20044;-17
2022/10/26 02:21:47;;;;;;;9.00;5.40;;;13.20;82.70;;;;;;5032930;28;20068;-16
2022/10/26 02:24:14;;;;;;;8.80;4.47;;;13.10;82.70;;;;;;5032911;28;20482;-17
2022/10/26 02:26:44;;;;;;;8.45;5.05;;;13.10;82.70;;;;;;5032799;28;20492;-16
2022/10/26 02:29:15;;;;;;;8.75;5.63;;;13.10;82.70;;;;;;5032798;28;20044;-15
2022/10/26 02:31:43;;;;;;;11.27;5.65;;;13.10;82.80;;;;;;5032693;28;20108;-18
2022/10/26 02:34:12;;;;;;;11.43;6.90;;;13.10;82.70;;;;;;5032876;28;20029;-18
2022/10/26 02:36:42;;;;;;;10.68;5.95;;;13.00;82.70;;;;;;5032603;28;20060;-17
2022/10/26 02:39:10;;;;;;;10.35;5.45;;;13.00;82.70;;;;;;5032740;28;20025;-17
2022/10/26 02:41:38;;;;;;;11.85;6.90;;;13.00;82.80;;;;;;5033184;28;20041;-18
2022/10/26 02:44:16;;;;;;;11.25;5.43;;;13.00;82.80;;;;;;5016000;28;20057;-17
2022/10/26 02:46:43;;;;;;;9.27;5.53;;;12.90;82.80;;;;;;5032988;28;20026;-16
2022/10/26 02:49:10;;;;;;;8.40;5.07;;;12.90;83.00;;;;;;5034660;28;20025;-18
2022/10/26 02:51:51;;;;;;;9.20;5.55;;;12.90;83.00;;;;;;5034630;28;20087;-18
2022/10/26 02:54:49;;;;;;;10.80;5.40;;;12.90;83.00;;;;;;5034691;28;20018;-16
2022/10/26 02:57:20;;;;;;;10.32;6.85;;;12.90;83.00;;;;;;5034544;28;20025;-17
2022/10/26 02:59:47;;;;;;;9.07;5.70;;;12.90;83.30;;;;;;5033955;28;20018;-18
2022/10/26 03:02:16;;;;;;;7.75;5.50;;;12.80;83.30;;;;;;5034715;28;20035;-18
2022/10/26 03:04:42;;;;;;;11.13;5.60;;;12.80;83.10;;;;;;5034029;28;20047;-17
2022/10/26 03:07:08;;;;;;;14.63;7.32;;;12.70;83.20;;;;;;5033840;28;20032;-18
2022/10/26 03:09:34;;;;;;;10.90;5.95;;;12.70;83.10;;;;;;5034082;28;20057;-17
2022/10/26 03:12:00;;;;;;;11.00;5.72;;;12.70;83.20;;;;;;5034018;28;20025;-18
2022/10/26 03:14:26;;;;;;;12.60;6.78;;;12.70;83.30;;;;;;5034533;28;20022;-18
2022/10/26 03:16:52;;;;;;;11.05;6.72;;;12.70;83.40;;;;;;5032538;28;20568;-16
2022/10/26 03:19:17;;;;;;;12.38;7.00;;;12.70;83.40;;;;;;5034076;28;20029;-17
2022/10/26 03:21:43;;;;;;;14.55;7.55;;;12.70;83.50;;;;;;5033958;28;20396;-18
2022/10/26 03:24:09;;;;;;;13.63;7.28;;;12.70;83.50;;;;;;5034040;28;20124;-19
2022/10/26 03:26:35;;;;;;;10.40;6.20;;;12.70;83.50;;;;;;5034235;28;20416;-18
2022/10/26 03:29:01;;;;;;;14.75;7.18;;;12.70;83.60;;;;;;5033504;28;20389;-18
2022/10/26 03:31:27;;;;;;;13.77;8.07;;;12.70;83.60;;;;;;5034013;28;20021;-17
2022/10/26 03:33:53;;;;;;;14.07;8.27;;;12.70;83.70;;;;;;5033856;28;20484;-18
2022/10/26 03:36:19;;;;;;;15.10;7.82;;;12.80;83.90;;;;;;5033859;28;20060;-16
2022/10/26 03:38:44;;;;;;;12.68;7.50;;;12.80;83.80;;;;;;5033617;28;20026;-18
2022/10/26 03:41:10;;;;;;;12.20;8.32;;;12.80;83.80;;;;;;5033203;28;20076;-16
2022/10/26 03:43:36;;;;;;;9.80;6.07;;;12.90;84.20;;;;;;5051458;28;20021;-16
2022/10/26 03:46:02;;;;;;;15.00;8.40;;;12.90;84.10;;;;;;5072467;28;20008;-18
2022/10/26 03:48:28;;;;;;;13.60;8.30;;;12.90;83.80;;;;;;5073539;28;20028;-17
2022/10/26 03:50:58;;;;;;;12.90;6.85;;;12.90;84.00;;;;;;5073250;28;20500;-17
2022/10/26 03:53:25;;;;;;;15.40;8.50;;;12.90;83.90;;;;;;5073252;28;20099;-18
2022/10/26 03:55:51;;;;;;;17.80;8.85;;;13.00;84.00;;;;;;5071987;28;20027;-18
2022/10/26 03:58:17;;;;;;;11.50;7.20;;;13.00;83.90;;;;;;5073482;28;20028;-17
2022/10/26 04:00:43;;;;;;;13.48;7.47;;;13.00;83.90;;;;;;5073054;28;20040;-16
2022/10/26 04:03:09;;;;;;;14.88;8.07;;;13.00;83.90;;;;;;5072844;28;20028;-17
2022/10/26 04:05:35;;;;;;;13.88;8.63;;;13.00;83.80;;;;;;5073150;28;20099;-18
2022/10/26 04:08:02;;;;;;;16.60;8.63;;;13.00;83.80;;;;;;5073383;28;20094;-17
2022/10/26 04:10:29;;;;;;;16.10;8.68;;;13.00;83.80;;;;;;5072806;28;20484;-18
2022/10/26 04:12:56;;;;;;;12.15;6.90;;;13.00;83.90;;;;;;5073209;28;20033;-17
2022/10/26 04:15:22;;;;;;;13.25;6.38;;;13.00;83.90;;;;;;5072963;28;20052;-18
2022/10/26 04:17:55;;;;;;;10.18;6.65;;;13.00;83.90;;;;;;5073056;28;20056;-17
2022/10/26 04:20:21;;;;;;;13.27;6.43;;;13.00;84.00;;;;;;5072899;28;20427;-17
2022/10/26 04:22:47;;;;;;;12.23;5.95;;;13.10;84.10;;;;;;5073015;28;20032;-16
2022/10/26 04:25:13;;;;;;;17.20;8.45;;;13.00;83.90;;;;;;5073152;28;20479;-17
2022/10/26 04:27:39;;;;;;;16.73;8.27;;;13.10;83.80;;;;;;5073156;28;20056;-17
2022/10/26 04:30:08;;;;;;;20.17;8.55;;;13.10;83.80;;;;;;5073148;28;20031;-18
2022/10/26 04:32:34;;;;;;;12.73;7.38;;;13.10;83.80;;;;;;5072829;28;20502;-17
2022/10/26 04:35:00;;;;;;;15.13;6.20;;;13.10;84.00;;;;;;5072823;28;20103;-16
2022/10/26 04:37:26;;;;;;;10.45;6.00;;;13.10;83.90;;;;;;5072754;28;20484;-18
2022/10/26 04:39:52;;;;;;;14.82;7.25;;;13.10;83.90;;;;;;5073071;28;20035;-18
2022/10/26 04:42:18;;;;;;;13.05;6.10;;;13.10;83.90;;;;;;5071447;28;20123;-17
2022/10/26 04:44:44;;;;;;;10.45;6.40;;;13.20;84.00;;;;;;5072442;28;20476;-16
2022/10/26 04:47:10;;;;;;;11.68;6.05;;;13.20;84.00;;;;;;5072834;28;20119;-16
2022/10/26 04:49:35;;;;;;;10.30;5.30;;;13.20;84.00;;;;;;5072908;28;20032;-18
2022/10/26 04:52:01;;;;;;;11.38;6.20;;;13.10;83.90;;;;;;5072944;28;20078;-18
2022/10/26 04:54:27;;;;;;;11.23;5.53;;;13.20;83.90;;;;;;5072932;28;20032;-17
2022/10/26 04:56:53;;;;;;;10.13;5.40;;;13.20;83.80;;;;;;5073106;28;20536;-18
2022/10/26 04:59:19;;;;;;;8.70;5.07;;;13.20;83.80;;;;;;5072512;28;20025;-18
2022/10/26 05:01:45;;;;;;;7.40;5.05;;;13.10;83.80;;;;;;5072723;28;20043;-17
2022/10/26 05:04:11;;;;;;;9.25;4.97;;;13.20;83.80;;;;;;5072769;28;20031;-18
2022/10/26 05:06:37;;;;;;;6.90;4.30;;;13.10;83.70;;;;;;5072574;28;20024;-18
2022/10/26 05:09:03;;;;;;;9.70;4.90;;;13.10;83.70;;;;;;5072366;28;20037;-16
2022/10/26 05:11:35;;;;;;;8.88;5.00;;;13.10;83.60;;;;;;5072702;28;20418;-18
2022/10/26 05:14:01;;;;;;;9.55;5.47;;;13.10;83.60;;;;;;5072998;28;20029;-18
2022/10/26 05:16:27;;;;;;;9.35;5.22;;;13.10;83.60;;;;;;5072406;28;20089;-17
2022/10/26 05:18:53;;;;;;;9.88;4.85;;;13.00;83.60;;;;;;5072268;28;20024;-16
2022/10/26 05:21:18;;;;;;;8.77;5.00;;;12.90;83.60;;;;;;5072778;28;20039;-17
2022/10/26 05:23:51;;;;;;;9.18;4.95;;;12.90;83.70;;;;;;5075878;28;20036;-15
2022/10/26 05:26:17;;;;;;;7.85;4.70;;;12.90;83.70;;;;;;5076259;28;20483;-16
2022/10/26 05:28:43;;;;;;;7.20;4.65;;;12.90;83.80;;;;;;5076020;28;20028;-16
2022/10/26 05:31:09;;;;;;;8.45;4.93;;;12.90;83.80;;;;;;5075689;28;20036;-18
2022/10/26 05:33:34;;;;;;;16.92;7.55;;;12.90;83.80;;;;;;5076116;28;20016;-18
2022/10/26 05:36:00;;;;;;;11.98;6.68;;;12.90;83.80;;;;;;5075924;28;20029;-18
2022/10/26 05:38:26;;;;;;;9.85;5.40;;;12.90;83.80;;;;;;5076022;28;20020;-15
2022/10/26 05:40:53;;;;;;;9.88;4.88;;;12.90;83.90;;;;;;5075779;28;20024;-18
2022/10/26 05:43:21;;;;;;;8.90;5.20;;;12.90;84.00;;;;;;5076040;28;20028;-17
2022/10/26 05:45:49;;;;;;;10.43;5.05;;;12.90;84.10;;;;;;5075425;28;20072;-17
2022/10/26 05:48:16;;;;;;;8.38;4.93;;;12.90;84.10;;;;;;5075769;28;20078;-16
2022/10/26 05:50:42;;;;;;;8.10;4.65;;;13.00;84.10;;;;;;5075345;28;20020;-17
2022/10/26 05:53:08;;;;;;;8.85;4.88;;;13.10;84.20;;;;;;5075553;28;20013;-16
2022/10/26 05:55:35;;;;;;;12.82;6.50;;;13.10;84.20;;;;;;5075670;28;20063;-16
2022/10/26 05:58:01;;;;;;;7.85;5.32;;;13.20;84.20;;;;;;5075416;28;20511;-18
2022/10/26 06:00:28;;;;;;;11.65;6.00;;;13.20;84.20;;;;;;5075549;28;20028;-16
2022/10/26 06:03:19;;;;;;;11.20;5.47;;;13.30;84.50;;;;;;5075066;28;20025;-16
2022/10/26 06:05:54;;;;;;;8.40;5.13;;;13.30;84.30;;;;;;5075140;28;20029;-17
2022/10/26 06:08:23;;;;;;;11.35;6.30;;;13.40;84.10;;;;;;5074470;28;20100;-17
2022/10/26 06:10:50;;;;;;;9.80;6.13;;;13.40;84.10;;;;;;5075533;28;20033;-18
2022/10/26 06:13:16;;;;;;;11.35;6.28;;;13.50;84.10;;;;;;5075875;28;20073;-17
2022/10/26 06:16:14;;;;;;;9.98;5.97;;;13.50;84.30;;;;;;5074999;28;20513;-17
2022/10/26 06:18:46;;;;;;;10.13;6.03;;;13.60;84.70;;;;;;5075255;28;20033;-18
2022/10/26 06:21:43;;;;;;;10.27;5.15;;;13.60;84.50;;;;;;5074990;28;20054;-16
2022/10/26 06:24:38;;;;;;;9.60;5.22;;;13.60;84.20;;;;;;5075073;28;20016;-17
2022/10/26 06:27:29;;;;;;;12.50;5.80;;;13.70;84.20;;;;;;5037748;28;20042;-17
2022/10/26 06:30:08;;;;;;;8.30;5.40;;;13.80;84.10;;;;;;5074997;28;20033;-16
2022/10/26 06:32:35;;;;;;;7.47;4.57;;;13.80;84.10;;;;;;5074976;28;20035;-16
2022/10/26 06:35:10;;;;;;;8.48;5.15;;;13.80;83.70;;;;;;5074676;28;20025;-16
2022/10/26 06:37:38;;;;;;;8.40;5.15;;;13.90;83.80;;;;;;5074950;28;20024;-17
2022/10/26 06:40:05;;;;;;;7.32;5.20;;;13.90;83.80;;;;;;5073338;28;20361;-16
2022/10/26 06:42:31;;;;;;;6.85;5.35;;;14.00;83.70;;;;;;5074381;28;20484;-18
2022/10/26 06:44:58;;;;;;;11.13;6.65;;;14.10;83.70;;;;;;5074072;28;20040;-17
2022/10/26 06:47:30;;;;;;;12.10;6.75;;;14.20;83.60;;;;;;5074301;28;20400;-17
2022/10/26 06:50:33;;;;;;;8.90;5.85;;;14.40;83.20;;;;;;5074568;28;20031;-18
2022/10/26 06:53:08;;;;;;;8.30;5.10;;;14.40;83.00;;;;;;5074028;28;20028;-16
2022/10/26 06:55:43;;;;;;;9.85;5.75;;;14.40;83.00;;;;;;5074480;28;20074;-16
2022/10/26 06:58:15;;;;;;;7.95;5.15;;;14.50;83.00;;;;;;5074513;28;20028;-16
2022/10/26 07:00:43;;;;;;;8.05;4.95;;;14.60;83.00;;;;;;5074300;28;20032;-15
2022/10/26 07:03:09;;;;;;;9.48;5.45;;;14.70;83.10;;;;;;5072913;28;20033;-15
2022/10/26 07:05:35;;;;;;;7.60;5.53;;;14.80;83.00;;;;;;5072739;28;20438;-16
2022/10/26 07:08:01;;;;;;;8.80;5.15;;;14.90;83.00;;;;;;5073904;28;20069;-16
2022/10/26 07:10:26;;;;;;;9.23;5.53;;;15.00;82.70;;;;;;5073897;28;20100;-17
2022/10/26 07:12:52;;;;;;;9.25;5.93;;;15.10;82.60;;;;;;5073966;28;20154;-16
2022/10/26 07:15:18;;;;;;;9.07;5.97;;;15.30;82.70;;;;;;5073747;28;20055;-16
2022/10/26 07:17:45;;;;;;;7.50;4.90;;;15.40;82.40;;;;;;5073859;28;20035;-16
2022/10/26 07:20:12;;;;;;;8.13;4.93;;;15.40;82.10;;;;;;5073782;28;20025;-18
2022/10/26 07:22:37;;;;;;;8.63;5.28;;;15.50;82.00;;;;;;5073887;28;20039;-16
2022/10/26 07:25:05;;;;;;;12.05;6.75;;;15.70;81.90;;;;;;5073806;28;20032;-17
2022/10/26 07:27:31;;;;;;;8.35;5.25;;;15.90;81.70;;;;;;5073614;28;20024;-16
2022/10/26 07:29:57;;;;;;;8.82;5.32;;;15.90;81.40;;;;;;5072690;28;20104;-18
2022/10/26 07:32:23;;;;;;;9.02;5.60;;;16.00;81.50;;;;;;5072339;28;20070;-16
2022/10/26 07:34:49;;;;;;;9.50;5.82;;;16.20;81.50;;;;;;5073260;28;20024;-18
2022/10/26 07:37:15;;;;;;;8.18;5.45;;;16.30;81.40;;;;;;5073406;28;20021;-16
2022/10/26 07:39:41;;;;;;;8.35;5.40;;;16.40;81.20;;;;;;5073911;28;20104;-17
2022/10/26 07:42:08;;;;;;;7.43;4.50;;;16.60;80.60;;;;;;5073304;28;20059;-17
2022/10/26 07:44:34;;;;;;;10.88;5.82;;;16.70;80.50;;;;;;5072684;28;20048;-17
2022/10/26 07:47:00;;;;;;;7.63;4.80;;;16.80;80.30;;;;;;5073151;28;20027;-18
2022/10/26 07:49:26;;;;;;;7.68;5.20;;;16.80;80.20;;;;;;5073025;28;20055;-17
2022/10/26 07:51:52;;;;;;;8.57;5.00;;;16.90;80.10;;;;;;5073707;28;20052;-16
2022/10/26 07:54:17;;;;;;;8.10;5.20;;;16.80;80.10;;;;;;5073251;28;20090;-17
2022/10/26 07:56:43;;;;;;;8.60;4.63;;;16.90;80.00;;;;;;5073326;28;20040;-16
2022/10/26 07:59:12;;;;;;;10.60;5.10;;;16.90;80.00;;;;;;5073024;28;20032;-16
2022/10/26 08:01:37;;;;;;;10.18;4.85;;;16.90;80.00;;;;;;5073364;28;20083;-17
2022/10/26 08:04:03;;;;;;;10.68;6.07;;;16.90;80.00;;;;;;5073472;28;20523;-17
2022/10/26 08:06:29;;;;;;;14.57;6.95;;;17.00;79.90;;;;;;5073313;28;20527;-16
2022/10/26 08:08:55;;;;;;;12.52;6.25;;;17.00;79.80;;;;;;5072828;28;20028;-19
2022/10/26 08:11:20;;;;;;;25.27;10.88;;;17.10;79.80;;;;;;5073047;28;20117;-17
2022/10/26 08:13:46;;;;;;;24.15;10.00;;;17.10;79.80;;;;;;5073051;28;20020;-17
2022/10/26 08:16:12;;;;;;;21.50;10.43;;;17.20;79.70;;;;;;5073218;28;20163;-17
2022/10/26 08:18:38;;;;;;;16.30;8.02;;;17.30;79.60;;;;;;5072964;28;20035;-17
2022/10/26 08:21:06;;;;;;;16.75;7.38;;;17.40;79.40;;;;;;5072704;28;20039;-16
2022/10/26 08:23:32;;;;;;;15.02;7.38;;;17.50;79.10;;;;;;5073237;28;20154;-16
2022/10/26 08:26:00;;;;;;;10.52;5.68;;;17.60;78.90;;;;;;5073272;28;20024;-16
2022/10/26 08:28:27;;;;;;;9.85;5.57;;;17.90;78.60;;;;;;5072913;28;20033;-16
2022/10/26 08:30:53;;;;;;;8.20;5.70;;;18.00;78.20;;;;;;5072715;28;20392;-17
2022/10/26 08:33:20;;;;;;;9.85;6.07;;;18.20;77.70;;;;;;5072855;28;20027;-17
2022/10/26 08:35:46;;;;;;;11.02;5.20;;;18.40;77.50;;;;;;5072730;28;20514;-16
2022/10/26 08:38:12;;;;;;;9.48;5.93;;;18.60;77.10;;;;;;5072779;28;20111;-16
2022/10/26 08:40:40;;;;;;;8.15;5.30;;;18.80;77.00;;;;;;5072887;28;20103;-15
2022/10/26 08:43:26;;;;;;;8.02;5.40;;;18.90;76.60;;;;;;5072451;28;20584;-18
2022/10/26 08:46:01;;;;;;;6.85;4.38;;;19.20;76.10;;;;;;5073107;28;20115;-16
2022/10/26 08:48:33;;;;;;;8.18;4.97;;;19.40;75.80;;;;;;5073014;28;20024;-17
2022/10/26 08:51:06;;;;;;;11.55;5.40;;;19.60;75.30;;;;;;5072877;28;20032;-16
2022/10/26 08:53:42;;;;;;;7.28;4.82;;;19.60;74.80;;;;;;5073010;28;20111;-16
2022/10/26 08:56:27;;;;;;;24.90;5.97;;;19.90;74.50;;;;;;5073230;28;20021;-16
2022/10/26 08:59:00;;;;;;;16.05;4.80;;;20.10;74.20;;;;;;5076423;28;20057;-17
2022/10/26 09:01:30;;;;;;;27.55;6.30;;;20.40;73.60;;;;;;5076318;28;20043;-16
2022/10/26 09:04:00;;;;;;;7.22;3.95;;;20.60;73.20;;;;;;5076682;28;20017;-16
2022/10/26 09:06:56;;;;;;;10.45;4.55;;;20.90;72.70;;;;;;5076509;28;20033;-16
2022/10/26 09:09:51;;;;;;;10.93;4.50;;;21.10;69.80;;;;;;5076921;28;20016;-16
2022/10/26 09:12:41;;;;;;;9.57;5.10;;;21.30;70.60;;;;;;5076229;28;20550;-16
2022/10/26 09:15:07;;;;;;;9.60;4.95;;;21.40;69.40;;;;;;5076004;28;20108;-16
2022/10/26 09:17:51;;;;;;;9.35;5.93;;;21.50;70.20;;;;;;5076093;28;20071;-15
2022/10/26 09:20:32;;;;;;;12.27;6.13;;;21.50;69.60;;;;;;5076308;28;20037;-15
2022/10/26 09:23:04;;;;;;;7.03;4.00;;;21.50;69.50;;;;;;5075880;28;20029;-15
2022/10/26 09:25:39;;;;;;;9.57;4.30;;;21.50;69.10;;;;;;5076024;28;20028;-16
2022/10/26 09:28:10;;;;;;;9.60;4.95;;;21.70;69.00;;;;;;5075962;28;20031;-16
2022/10/26 09:30:37;;;;;;;5.93;3.95;;;22.00;68.60;;;;;;5076060;28;20074;-16
2022/10/26 09:33:18;;;;;;;11.50;4.85;;;22.40;67.40;;;;;;5075617;28;20024;-16
2022/10/26 09:35:50;;;;;;;7.53;4.22;;;22.80;66.80;;;;;;5075780;28;20146;-16
2022/10/26 09:38:43;;;;;;;6.45;3.92;;;23.10;65.10;;;;;;5074599;28;20105;-16
2022/10/26 09:41:18;;;;;;;8.95;4.18;;;23.40;64.80;;;;;;5075531;28;20052;-16
2022/10/26 09:43:57;;;;;;;9.35;4.22;;;23.70;64.10;;;;;;5075718;28;20028;-14
2022/10/26 09:47:15;;;;;;;8.70;3.40;;;23.70;63.20;;;;;;5076162;28;20349;-16
2022/10/26 09:49:52;;;;;;;6.35;3.58;;;23.60;62.70;;;;;;5066691;28;20036;-16
2022/10/26 09:52:18;;;;;;;4.35;3.35;;;23.70;62.90;;;;;;5075713;28;20422;-15
2022/10/26 09:54:44;;;;;;;6.32;3.13;;;23.90;62.90;;;;;;5075592;28;20111;-16
2022/10/26 09:57:15;;;;;;;7.20;4.13;;;24.20;61.80;;;;;;5075360;28;20380;-17
2022/10/26 09:59:42;;;;;;;8.25;3.30;;;24.30;60.80;;;;;;5075824;28;20032;-15
2022/10/26 10:02:43;;;;;;;6.93;3.53;;;24.40;60.40;;;;;;5075875;28;20032;-15
2022/10/26 10:05:30;;;;;;;9.10;4.28;;;24.60;58.70;;;;;;5075582;28;20095;-15
2022/10/26 10:08:09;;;;;;;5.15;3.13;;;24.80;57.00;;;;;;5075475;28;20025;-15
2022/10/26 10:10:35;;;;;;;5.50;3.58;;;25.10;59.30;;;;;;5075133;28;20116;-16
2022/10/26 10:13:15;;;;;;;4.43;3.47;;;25.50;58.70;;;;;;5074854;28;20032;-16
2022/10/26 10:15:52;;;;;;;6.45;4.55;;;26.10;57.10;;;;;;5075083;28;20070;-16
2022/10/26 10:18:22;;;;;;;6.43;4.05;;;26.60;55.20;;;;;;5075378;28;20048;-16
2022/10/26 10:20:54;;;;;;;8.52;4.88;;;27.10;55.00;;;;;;5074992;28;20048;-16
2022/10/26 10:23:32;;;;;;;9.93;5.22;;;27.50;54.30;;;;;;5075441;28;20060;-15
2022/10/26 10:26:18;;;;;;;11.38;4.78;;;27.80;53.20;;;;;;5075245;28;20025;-15
2022/10/26 10:28:58;;;;;;;10.57;5.45;;;27.90;51.80;;;;;;5074781;28;20599;-15
2022/10/26 10:31:30;;;;;;;6.75;5.03;;;28.00;52.20;;;;;;5075104;28;20035;-15
2022/10/26 10:33:56;;;;;;;12.13;6.18;;;28.10;51.60;;;;;;5073449;28;20031;-15
2022/10/26 10:36:28;;;;;;;7.00;5.18;;;28.00;52.20;;;;;;5073324;28;20020;-15
2022/10/26 10:38:55;;;;;;;8.27;4.88;;;27.80;52.40;;;;;;5074558;28;20487;-16
2022/10/26 10:41:35;;;;;;;9.13;5.40;;;27.80;51.30;;;;;;5074450;28;20036;-16
2022/10/26 10:44:23;;;;;;;7.75;4.93;;;28.00;51.50;;;;;;5074244;28;20044;-16
2022/10/26 10:46:49;;;;;;;10.02;5.30;;;28.30;50.20;;;;;;5074443;28;20028;-15
2022/10/26 10:49:26;;;;;;;9.82;5.63;;;28.50;51.00;;;;;;5074661;28;20032;-16
2022/10/26 10:51:54;;;;;;;11.50;5.15;;;28.70;49.20;;;;;;5074374;28;20032;-17
2022/10/26 10:54:23;;;;;;;9.57;4.70;;;28.70;48.90;;;;;;5074499;28;20430;-16
2022/10/26 10:57:27;;;;;;;7.53;4.45;;;28.80;49.30;;;;;;5074086;28;20486;-15
2022/10/26 11:00:03;;;;;;;9.63;4.97;;;28.90;47.90;;;;;;5032579;28;20061;-16
2022/10/26 11:02:29;;;;;;;10.02;5.10;;;29.10;47.80;;;;;;5032392;28;20045;-15
2022/10/26 11:05:00;;;;;;;9.57;6.13;;;29.40;46.50;;;;;;5032047;28;20042;-16
2022/10/26 11:07:29;;;;;;;10.95;6.18;;;29.50;46.60;;;;;;5032571;28;20022;-15
2022/10/26 11:10:01;;;;;;;11.60;6.15;;;29.60;46.70;;;;;;5032055;28;20107;-15
2022/10/26 11:12:32;;;;;;;8.77;5.45;;;29.60;46.40;;;;;;5032035;28;20029;-15
2022/10/26 11:15:13;;;;;;;10.40;6.07;;;29.50;47.10;;;;;;5031796;28;20075;-15
2022/10/26 11:18:03;;;;;;;9.93;6.22;;;29.40;46.90;;;;;;5031970;28;20025;-16
2022/10/26 11:20:35;;;;;;;11.20;6.90;;;29.40;46.60;;;;;;5031090;28;20025;-16
2022/10/26 11:23:09;;;;;;;9.73;6.28;;;29.40;45.50;;;;;;5031598;28;20497;-15
2022/10/26 11:25:58;;;;;;;13.63;8.07;;;29.40;45.20;;;;;;5032050;28;20036;-16
2022/10/26 11:28:44;;;;;;;10.18;5.80;;;29.20;45.50;;;;;;5032120;28;20048;-16
2022/10/26 11:31:16;;;;;;;12.15;6.22;;;28.50;47.50;;;;;;5031661;28;20033;-15
2022/10/26 11:33:54;;;;;;;10.75;6.50;;;27.90;48.60;;;;;;5032076;28;20025;-15
2022/10/26 11:36:24;;;;;;;12.55;7.72;;;27.50;49.60;;;;;;5050217;28;20442;-16
2022/10/26 11:38:57;;;;;;;13.00;7.65;;;27.30;50.60;;;;;;5073047;28;20027;-16
2022/10/26 11:41:33;;;;;;;10.05;6.57;;;27.20;51.20;;;;;;5073674;28;20074;-16
2022/10/26 11:44:16;;;;;;;11.50;5.95;;;26.90;51.50;;;;;;5073256;28;20412;-15
2022/10/26 11:46:53;;;;;;;12.20;7.28;;;27.00;52.20;;;;;;5073705;28;20033;-15
2022/10/26 11:49:19;;;;;;;14.27;7.75;;;27.40;52.00;;;;;;5073597;28;20040;-15
2022/10/26 11:52:23;;;;;;;12.98;6.65;;;27.80;50.70;;;;;;5073493;28;20028;-15
2022/10/26 11:54:52;;;;;;;10.18;6.18;;;28.10;50.00;;;;;;5071814;28;20065;-15
2022/10/26 11:57:21;;;;;;;11.50;6.43;;;28.30;49.70;;;;;;5073530;28;20016;-15
2022/10/26 12:00:00;;;;;;;13.73;7.97;;;28.60;48.60;;;;;;5073526;28;20535;-15
2022/10/26 12:02:26;;;;;;;11.98;6.20;;;28.90;47.90;;;;;;5073710;28;20032;-15
2022/10/26 12:05:04;;;;;;;14.20;7.28;;;29.10;47.80;;;;;;5072920;28;20043;-16
2022/10/26 12:07:34;;;;;;;10.13;5.82;;;29.20;47.60;;;;;;5073037;28;20024;-15
2022/10/26 12:10:03;;;;;;;10.80;5.55;;;29.30;47.40;;;;;;5073351;28;20028;-16
2022/10/26 12:12:44;;;;;;;16.02;9.10;;;29.30;47.60;;;;;;5073311;28;20028;-15
2022/10/26 12:15:35;;;;;;;11.05;6.70;;;29.40;47.10;;;;;;5071743;28;20028;-15
2022/10/26 12:18:33;;;;;;;13.35;7.38;;;29.10;47.60;;;;;;5073076;28;20445;-15
2022/10/26 12:21:06;;;;;;;9.75;5.95;;;29.30;46.50;;;;;;5049576;28;20040;-15
2022/10/26 12:23:36;;;;;;;16.83;9.85;;;29.60;46.60;;;;;;5073261;28;20111;-15
2022/10/26 12:26:23;;;;;;;10.70;6.65;;;29.80;45.90;;;;;;5073267;28;20028;-15
2022/10/26 12:29:01;;;;;;;10.57;6.10;;;29.90;45.00;;;;;;5072634;28;20111;-16
2022/10/26 12:31:36;;;;;;;13.77;7.32;;;30.10;44.50;;;;;;5076158;28;20033;-15
2022/10/26 12:34:23;;;;;;;13.38;7.15;;;30.20;44.60;;;;;;5077188;28;20021;-16
2022/10/26 12:36:55;;;;;;;17.83;9.20;;;30.40;43.50;;;;;;5077078;28;20111;-16
2022/10/26 12:39:32;;;;;;;15.68;7.97;;;30.40;43.70;;;;;;5077185;28;20047;-15
2022/10/26 12:42:21;;;;;;;13.25;6.72;;;30.20;44.10;;;;;;5077091;28;20020;-16
2022/10/26 12:44:47;;;;;;;10.48;6.65;;;30.10;44.60;;;;;;5069890;28;20499;-15
2022/10/26 12:47:31;;;;;;;16.52;8.82;;;30.10;45.20;;;;;;5076992;28;20074;-15
2022/10/26 12:50:06;;;;;;;16.50;9.65;;;30.20;45.00;;;;;;5076897;28;20123;-15
2022/10/26 12:52:55;;;;;;;16.30;10.10;;;30.10;45.10;;;;;;5076717;28;20016;-17
2022/10/26 12:55:38;;;;;;;13.60;6.65;;;29.80;44.70;;;;;;5076859;28;20055;-16
2022/10/26 12:58:22;;;;;;;11.63;6.38;;;29.30;46.50;;;;;;5076881;28;20039;-16
2022/10/26 13:00:57;;;;;;;14.95;8.65;;;29.10;47.00;;;;;;5076235;28;20027;-16
2022/10/26 13:03:45;;;;;;;13.05;6.90;;;29.00;47.10;;;;;;5076927;28;20032;-15
2022/10/26 13:06:45;;;;;;;15.63;8.50;;;29.00;47.50;;;;;;5076611;28;20032;-16